Terminal Aerodrome Forecast
Issued by NWS Jackson, KY

Home | Current Version | Previous Version | Text Only | Print | Product List | Glossary On
Versions: 1 2 3 4 5 6 7 8 9 10 11 12 13 14 15 16 17 18 19 20 21 22
000
FTUS43 KJKL 041134
TAFLOZ
TAF
KLOZ 041134Z 0412/0512 24003KT P6SM OVC007
     FM041400 25005KT P6SM BKN015
     FM041700 25006KT P6SM VCSH BKN025
     FM041900 25006KT P6SM VCSH BKN035 BKN090
     FM050400 VRB03KT 2SM -SHRA BKN010 OVC035=

USA.gov is the U.S. government's official web portal to all federal, state and local government web resources and services.